createdAt,value
2023-08-16T00:02:20.536Z,19.73
2023-08-16T00:04:47.259Z,19.77
2023-08-16T00:07:14.223Z,19.79
2023-08-16T00:09:40.997Z,19.77
2023-08-16T00:12:08.229Z,19.75
2023-08-16T00:14:34.855Z,19.76
2023-08-16T00:17:01.498Z,19.77
2023-08-16T00:19:28.121Z,19.75
2023-08-16T00:21:54.621Z,19.73
2023-08-16T00:24:21.208Z,19.71
2023-08-16T00:26:47.849Z,19.73
2023-08-16T00:29:14.458Z,19.71
2023-08-16T00:31:41.256Z,19.66
2023-08-16T00:34:07.857Z,19.62
2023-08-16T00:36:34.432Z,19.59
2023-08-16T00:39:01.056Z,19.56
2023-08-16T00:41:27.622Z,19.53
2023-08-16T00:43:54.165Z,19.47
2023-08-16T00:46:21.019Z,19.43
2023-08-16T00:48:47.673Z,19.36
2023-08-16T00:51:15.154Z,19.32
2023-08-16T00:53:43.459Z,19.31
2023-08-16T00:56:10.329Z,19.28
2023-08-16T00:58:36.907Z,19.23
2023-08-16T01:01:03.636Z,19.22
2023-08-16T01:03:30.732Z,19.19
2023-08-16T01:05:57.509Z,19.18
2023-08-16T01:08:24.152Z,19.22
2023-08-16T01:10:54.107Z,19.21
2023-08-16T01:13:27.816Z,19.19
2023-08-16T01:15:57.844Z,19.13
2023-08-16T01:18:26.412Z,19.13
2023-08-16T01:20:54.866Z,19.13
2023-08-16T01:23:25.200Z,19.08
2023-08-16T01:26:01.556Z,19.04
2023-08-16T01:28:29.901Z,19.02
2023-08-16T01:31:04.847Z,18.98
2023-08-16T01:33:31.497Z,18.95
2023-08-16T01:35:58.450Z,18.95
2023-08-16T01:38:26.509Z,18.95
2023-08-16T01:41:00.577Z,18.93
2023-08-16T01:43:28.563Z,18.92
2023-08-16T01:45:56.026Z,18.89
2023-08-16T01:48:24.346Z,18.83
2023-08-16T01:50:51.306Z,18.76
2023-08-16T01:53:19.474Z,18.69
2023-08-16T01:55:46.393Z,18.63
2023-08-16T01:58:12.933Z,18.58
2023-08-16T02:00:39.480Z,18.57
2023-08-16T02:03:06.076Z,18.56
2023-08-16T02:05:32.682Z,18.52
2023-08-16T02:07:59.266Z,18.48
2023-08-16T02:10:26.045Z,18.48
2023-08-16T02:12:52.580Z,18.49
2023-08-16T02:15:19.100Z,18.49
2023-08-16T02:17:45.650Z,18.52
2023-08-16T02:20:13.785Z,18.56
2023-08-16T02:22:43.148Z,18.56
2023-08-16T02:25:10.384Z,18.58
2023-08-16T02:27:36.946Z,18.58
2023-08-16T02:30:03.909Z,18.62
2023-08-16T02:32:30.443Z,18.64
2023-08-16T02:34:57.020Z,18.63
2023-08-16T02:37:24.759Z,18.60
2023-08-16T02:39:51.646Z,18.59
2023-08-16T02:42:18.145Z,18.57
2023-08-16T02:44:44.878Z,18.59
2023-08-16T02:47:11.376Z,18.63
2023-08-16T02:49:37.911Z,18.65
2023-08-16T02:52:04.761Z,18.62
2023-08-16T02:54:31.411Z,18.61
2023-08-16T02:56:57.920Z,18.58
2023-08-16T02:59:24.507Z,18.61
2023-08-16T03:01:52.457Z,18.65
2023-08-16T03:04:19.020Z,18.65
2023-08-16T03:06:45.682Z,18.63
2023-08-16T03:09:12.203Z,18.62
2023-08-16T03:11:38.705Z,18.60
2023-08-16T03:14:05.452Z,18.61
2023-08-16T03:16:32.007Z,18.60
2023-08-16T03:18:59.935Z,18.57
2023-08-16T03:21:26.462Z,18.58
2023-08-16T03:23:52.988Z,18.60
2023-08-16T03:26:19.511Z,18.60
2023-08-16T03:28:46.077Z,18.60
2023-08-16T03:31:12.678Z,18.58
2023-08-16T03:33:39.191Z,18.56
2023-08-16T03:36:05.975Z,18.54
2023-08-16T03:38:32.500Z,18.56
2023-08-16T03:40:59.080Z,18.56
2023-08-16T03:43:25.899Z,18.56
2023-08-16T03:45:52.462Z,18.55
2023-08-16T03:48:19.121Z,18.55
2023-08-16T03:50:45.705Z,18.56
2023-08-16T03:53:12.653Z,18.55
2023-08-16T03:55:39.246Z,18.55
2023-08-16T03:58:06.211Z,18.57
2023-08-16T04:00:33.040Z,18.59
2023-08-16T04:02:59.789Z,18.61
2023-08-16T04:05:26.454Z,18.67
2023-08-16T04:07:52.985Z,18.70
2023-08-16T04:10:19.654Z,18.76
2023-08-16T04:12:46.220Z,18.77
2023-08-16T04:15:12.904Z,18.76
2023-08-16T04:17:40.364Z,18.77
2023-08-16T04:20:08.929Z,18.73
2023-08-16T04:22:36.177Z,18.74
2023-08-16T04:25:02.851Z,18.75
2023-08-16T04:27:29.415Z,18.77
2023-08-16T04:29:56.018Z,18.82
2023-08-16T04:32:22.725Z,18.86
2023-08-16T04:34:49.286Z,18.87
2023-08-16T04:37:15.822Z,18.87
2023-08-16T04:39:42.337Z,18.91
2023-08-16T04:42:08.837Z,18.94
2023-08-16T04:44:35.379Z,18.97
2023-08-16T04:47:01.950Z,18.98
2023-08-16T04:49:29.431Z,19.01
2023-08-16T04:51:56.382Z,19.05
2023-08-16T04:54:23.108Z,19.10
2023-08-16T04:56:50.784Z,19.10
2023-08-16T04:59:17.834Z,19.11
2023-08-16T05:01:45.164Z,19.13
2023-08-16T05:04:11.809Z,19.14
2023-08-16T05:06:38.766Z,19.11
2023-08-16T05:09:06.244Z,19.11
2023-08-16T05:11:32.990Z,19.13
2023-08-16T05:13:59.604Z,19.14
2023-08-16T05:16:26.531Z,19.18
2023-08-16T05:18:55.890Z,19.19
2023-08-16T05:21:22.454Z,19.20
2023-08-16T05:23:48.972Z,19.22
2023-08-16T05:26:15.612Z,19.25
2023-08-16T05:28:42.276Z,19.25
2023-08-16T05:31:12.676Z,19.31
2023-08-16T05:33:40.176Z,19.32
2023-08-16T05:36:07.912Z,19.34
2023-08-16T05:38:34.792Z,19.36
2023-08-16T05:41:04.233Z,19.37
2023-08-16T05:43:31.459Z,19.38
2023-08-16T05:45:58.025Z,19.40
2023-08-16T05:48:24.546Z,19.41
2023-08-16T05:50:51.081Z,19.38
2023-08-16T05:53:17.631Z,19.38
2023-08-16T05:55:44.296Z,19.34
2023-08-16T05:58:10.813Z,19.36
2023-08-16T06:00:37.406Z,19.40
2023-08-16T06:03:04.860Z,19.40
2023-08-16T06:05:31.435Z,19.43
2023-08-16T06:07:58.740Z,19.48
2023-08-16T06:10:25.278Z,19.52
2023-08-16T06:12:51.834Z,19.58
2023-08-16T06:15:18.414Z,19.62
2023-08-16T06:17:44.946Z,19.68
2023-08-16T06:20:11.991Z,19.76
2023-08-16T06:22:38.520Z,19.77
2023-08-16T06:25:06.820Z,19.81
2023-08-16T06:27:34.315Z,19.84
2023-08-16T06:30:01.474Z,19.88
2023-08-16T06:32:28.274Z,19.93
2023-08-16T06:34:54.801Z,19.94
2023-08-16T06:37:22.468Z,19.99
2023-08-16T06:39:49.490Z,20.02
2023-08-16T06:42:16.134Z,20.09
2023-08-16T06:44:42.746Z,20.14
2023-08-16T06:47:09.285Z,20.19
2023-08-16T06:49:35.810Z,20.24
2023-08-16T06:52:02.442Z,20.27
2023-08-16T06:54:29.029Z,20.27
2023-08-16T06:56:59.038Z,20.29
2023-08-16T06:59:26.317Z,20.33
2023-08-16T07:01:52.855Z,20.34
2023-08-16T07:04:19.833Z,20.37
2023-08-16T07:06:46.377Z,20.41
2023-08-16T07:09:12.925Z,20.44
2023-08-16T07:11:39.448Z,20.45
2023-08-16T07:14:06.110Z,20.49
2023-08-16T07:16:33.884Z,20.57
2023-08-16T07:19:00.509Z,20.60
2023-08-16T07:21:27.479Z,20.68
2023-08-16T07:23:54.092Z,20.75
2023-08-16T07:26:20.677Z,20.79
2023-08-16T07:28:47.267Z,20.79
2023-08-16T07:31:13.851Z,20.80
2023-08-16T07:33:41.961Z,20.87
2023-08-16T07:36:08.748Z,20.89
2023-08-16T07:38:35.328Z,20.93
2023-08-16T07:41:02.417Z,20.97
2023-08-16T07:43:30.198Z,20.92
2023-08-16T07:45:57.916Z,20.92
2023-08-16T07:48:24.988Z,20.92
2023-08-16T07:50:51.892Z,20.92
2023-08-16T07:53:18.698Z,20.93
2023-08-16T07:55:45.420Z,20.91
2023-08-16T07:58:14.991Z,20.89
2023-08-16T08:00:41.501Z,20.95
2023-08-16T08:03:09.815Z,20.93
2023-08-16T08:05:37.022Z,20.94
2023-08-16T08:08:05.524Z,20.94
2023-08-16T08:10:33.269Z,20.97
2023-08-16T08:12:59.907Z,20.97
2023-08-16T08:15:26.779Z,21.00
2023-08-16T08:17:53.581Z,21.01
2023-08-16T08:20:20.295Z,21.10
2023-08-16T08:22:46.886Z,21.11
2023-08-16T08:25:13.731Z,21.13
2023-08-16T08:27:40.410Z,21.20
2023-08-16T08:30:08.640Z,21.34
2023-08-16T08:32:35.280Z,21.49
2023-08-16T08:35:03.738Z,21.62
2023-08-16T08:37:31.484Z,21.73
2023-08-16T08:39:58.773Z,21.86
2023-08-16T08:42:26.372Z,21.86
2023-08-16T08:44:54.265Z,21.96
2023-08-16T08:47:20.834Z,22.03
2023-08-16T08:49:49.320Z,22.12
2023-08-16T08:52:17.057Z,22.15
2023-08-16T08:54:43.630Z,22.25
2023-08-16T08:57:11.619Z,22.27
2023-08-16T08:59:44.777Z,22.25
2023-08-16T09:02:12.099Z,22.27
2023-08-16T09:04:39.458Z,22.35
2023-08-16T09:07:09.168Z,22.18
2023-08-16T09:09:36.202Z,22.11
2023-08-16T09:12:02.788Z,22.24
2023-08-16T09:14:30.008Z,22.27
2023-08-16T09:16:56.572Z,22.22
2023-08-16T09:19:23.740Z,22.18
2023-08-16T09:21:52.696Z,22.19
2023-08-16T09:24:25.093Z,22.15
2023-08-16T09:26:53.449Z,22.13
2023-08-16T09:29:20.028Z,22.10
2023-08-16T09:31:48.029Z,22.14
2023-08-16T09:34:14.773Z,22.13
2023-08-16T09:36:47.248Z,22.14
2023-08-16T09:39:13.849Z,22.13
2023-08-16T09:41:51.297Z,22.07
2023-08-16T09:44:18.833Z,22.14
2023-08-16T09:49:16.812Z,22.34
2023-08-16T09:54:14.773Z,22.42
2023-08-16T09:57:29.419Z,22.50
2023-08-16T10:09:35.348Z,22.82
2023-08-16T10:12:03.813Z,22.84
2023-08-16T10:14:34.715Z,22.93
2023-08-16T10:17:07.304Z,22.97
2023-08-16T10:19:35.367Z,23.09
2023-08-16T10:22:09.305Z,22.98
2023-08-16T10:24:50.747Z,23.07
2023-08-16T10:27:20.998Z,23.16
2023-08-16T10:29:53.851Z,23.31
2023-08-16T10:32:26.549Z,23.46
2023-08-16T10:34:56.401Z,23.52
2023-08-16T10:37:25.940Z,23.23
2023-08-16T10:42:27.652Z,23.27
2023-08-16T10:44:54.536Z,23.23
2023-08-16T10:47:31.354Z,23.33
2023-08-16T10:50:01.116Z,23.23
2023-08-16T10:52:30.727Z,23.16
2023-08-16T10:54:59.704Z,23.23
2023-08-16T10:57:27.108Z,23.37
2023-08-16T11:00:05.609Z,23.38
2023-08-16T11:02:32.909Z,23.34
2023-08-16T11:05:04.965Z,23.45
2023-08-16T11:07:31.722Z,23.47
2023-08-16T11:10:01.725Z,23.52
2023-08-16T11:12:32.072Z,23.72
2023-08-16T11:14:59.378Z,23.81
2023-08-16T11:17:30.649Z,23.81
2023-08-16T11:19:57.799Z,24.03
2023-08-16T11:22:26.516Z,24.31
2023-08-16T11:24:56.334Z,24.63
2023-08-16T11:27:24.006Z,24.90
2023-08-16T11:29:51.540Z,25.29
2023-08-16T11:32:32.675Z,25.55
2023-08-16T11:34:59.450Z,25.50
2023-08-16T11:37:26.071Z,25.49
2023-08-16T11:40:05.769Z,25.49
2023-08-16T11:42:32.407Z,25.34
2023-08-16T11:44:58.963Z,25.22
2023-08-16T11:47:25.923Z,25.18
2023-08-16T11:49:54.968Z,25.28
2023-08-16T11:52:25.377Z,25.31
2023-08-16T11:55:02.897Z,25.27
2023-08-16T11:57:29.494Z,25.04
2023-08-16T11:59:56.984Z,24.89
2023-08-16T12:02:24.795Z,24.55
2023-08-16T12:04:52.276Z,24.59
2023-08-16T12:07:19.062Z,24.63
2023-08-16T12:09:48.222Z,24.61
2023-08-16T12:12:15.222Z,24.65
2023-08-16T12:14:41.760Z,24.58
2023-08-16T12:17:08.326Z,24.66
2023-08-16T12:19:34.978Z,24.52
2023-08-16T12:22:02.746Z,24.57
2023-08-16T12:24:29.923Z,24.62
2023-08-16T12:26:56.483Z,24.59
2023-08-16T12:29:23.036Z,24.47
2023-08-16T12:31:50.431Z,24.43
2023-08-16T12:34:16.961Z,24.36
2023-08-16T12:36:46.216Z,24.07
2023-08-16T12:39:13.056Z,23.97
2023-08-16T12:41:39.566Z,23.98
2023-08-16T12:44:06.397Z,23.94
2023-08-16T12:46:33.047Z,23.90
2023-08-16T12:49:00.361Z,23.89
2023-08-16T12:51:28.570Z,23.82
2023-08-16T12:53:55.134Z,23.78
2023-08-16T12:56:21.960Z,23.78
2023-08-16T13:01:19.771Z,23.77
2023-08-16T13:06:30.624Z,23.81
2023-08-16T13:09:03.097Z,23.84
2023-08-16T13:11:34.624Z,23.92
2023-08-16T13:14:11.329Z,23.99
2023-08-16T13:19:24.337Z,24.08
2023-08-16T13:21:54.783Z,24.11
2023-08-16T13:24:38.064Z,24.17
2023-08-16T13:27:17.306Z,24.33
2023-08-16T13:29:57.695Z,24.56
2023-08-16T13:32:32.403Z,24.66
2023-08-16T13:35:11.964Z,24.85
2023-08-16T13:40:20.376Z,25.26
2023-08-16T13:42:56.169Z,25.43
2023-08-16T13:45:23.168Z,25.70
2023-08-16T13:47:51.267Z,25.86
2023-08-16T13:50:17.977Z,26.10
2023-08-16T13:52:44.491Z,26.41
2023-08-16T13:55:12.890Z,26.59
2023-08-16T13:57:39.422Z,26.90
2023-08-16T14:00:08.856Z,27.23
2023-08-16T14:02:35.450Z,27.18
2023-08-16T14:05:02.104Z,27.20
2023-08-16T14:07:28.686Z,27.42
2023-08-16T14:09:55.262Z,27.71
2023-08-16T14:12:21.864Z,27.73
2023-08-16T14:14:48.423Z,27.76
2023-08-16T14:17:15.080Z,27.86
2023-08-16T14:19:42.262Z,27.94
2023-08-16T14:22:08.836Z,27.95
2023-08-16T14:24:35.433Z,27.98
2023-08-16T14:27:01.979Z,27.88
2023-08-16T14:29:28.558Z,27.82
2023-08-16T14:31:55.062Z,27.84
2023-08-16T14:34:21.631Z,27.83
2023-08-16T14:36:48.322Z,27.80
2023-08-16T14:39:14.853Z,27.76
2023-08-16T14:41:41.456Z,27.71
2023-08-16T14:44:08.022Z,27.73
2023-08-16T14:46:34.717Z,27.72
2023-08-16T14:49:01.320Z,27.70
2023-08-16T14:51:27.855Z,27.69
2023-08-16T14:53:54.363Z,27.58
2023-08-16T14:56:22.227Z,27.45
2023-08-16T14:58:49.163Z,27.30
2023-08-16T15:01:15.785Z,27.13
2023-08-16T15:03:42.447Z,27.08
2023-08-16T15:06:09.103Z,27.10
2023-08-16T15:08:37.110Z,26.97
2023-08-16T15:11:17.935Z,27.07
2023-08-16T15:13:45.291Z,27.15
2023-08-16T15:16:14.191Z,27.14
2023-08-16T15:18:40.812Z,27.19
2023-08-16T15:21:13.059Z,27.21
2023-08-16T15:23:40.807Z,27.21
2023-08-16T15:26:09.134Z,27.27
2023-08-16T15:28:37.449Z,27.18
2023-08-16T15:31:05.351Z,27.18
2023-08-16T15:33:32.003Z,27.28
2023-08-16T15:35:58.663Z,27.42
2023-08-16T15:38:37.449Z,27.34
2023-08-16T15:41:04.167Z,27.32
2023-08-16T15:43:31.126Z,27.26
2023-08-16T15:45:57.699Z,27.21
2023-08-16T15:48:24.264Z,27.20
2023-08-16T15:50:55.744Z,27.06
2023-08-16T15:53:23.601Z,26.94
2023-08-16T15:55:51.025Z,26.80
2023-08-16T15:58:17.603Z,26.80
2023-08-16T16:00:45.583Z,26.82
2023-08-16T16:03:12.199Z,26.72
2023-08-16T16:05:38.742Z,26.62
2023-08-16T16:08:05.640Z,26.60
2023-08-16T16:10:32.227Z,26.56
2023-08-16T16:13:00.461Z,26.55
2023-08-16T16:15:27.119Z,26.52
2023-08-16T16:17:53.697Z,26.46
2023-08-16T16:20:20.308Z,26.38
2023-08-16T16:22:46.852Z,26.28
2023-08-16T16:25:13.452Z,26.16
2023-08-16T16:27:39.991Z,26.11
2023-08-16T16:30:07.359Z,26.05
2023-08-16T16:32:33.972Z,25.93
2023-08-16T16:35:00.615Z,25.80
2023-08-16T16:37:27.155Z,25.67
2023-08-16T16:39:53.665Z,25.57
2023-08-16T16:46:15.344Z,25.33
2023-08-16T16:48:41.986Z,25.24
2023-08-16T16:51:20.982Z,25.17
2023-08-16T16:53:47.498Z,25.12
2023-08-16T16:56:14.043Z,25.07
2023-08-16T16:58:40.550Z,25.03
2023-08-16T17:01:07.120Z,24.99
2023-08-16T17:03:34.864Z,24.96
2023-08-16T17:06:04.780Z,24.89
2023-08-16T17:08:31.325Z,24.84
2023-08-16T17:10:57.889Z,24.83
2023-08-16T17:13:26.670Z,24.81
2023-08-16T17:15:54.587Z,24.80
2023-08-16T17:18:21.139Z,24.76
2023-08-16T17:20:48.768Z,24.73
2023-08-16T17:23:16.157Z,24.66
2023-08-16T17:25:45.646Z,24.60
2023-08-16T17:31:53.871Z,24.48
2023-08-16T17:34:20.890Z,24.45
2023-08-16T17:36:47.476Z,24.40
2023-08-16T17:39:14.599Z,24.35
2023-08-16T17:41:41.283Z,24.28
2023-08-16T17:44:09.655Z,24.20
2023-08-16T17:46:36.440Z,24.13
2023-08-16T17:49:03.083Z,24.06
2023-08-16T17:51:29.927Z,24.03
2023-08-16T17:53:56.447Z,23.95
2023-08-16T17:56:23.030Z,23.84
2023-08-16T17:58:51.802Z,23.76
2023-08-16T18:01:18.573Z,23.66
2023-08-16T18:03:46.912Z,23.56
2023-08-16T18:06:13.475Z,23.46
2023-08-16T18:08:40.171Z,23.36
2023-08-16T18:11:06.755Z,23.26
2023-08-16T18:13:33.440Z,23.17
2023-08-16T18:16:00.753Z,23.07
2023-08-16T18:18:28.297Z,22.98
2023-08-16T18:20:55.250Z,22.92
2023-08-16T18:23:24.836Z,22.83
2023-08-16T18:25:51.775Z,22.70
2023-08-16T18:28:20.528Z,22.60
2023-08-16T18:30:50.394Z,22.51
2023-08-16T18:33:17.444Z,22.44
2023-08-16T18:35:44.051Z,22.38
2023-08-16T18:38:10.607Z,22.31
2023-08-16T18:40:37.209Z,22.20
2023-08-16T18:43:03.961Z,22.10
2023-08-16T18:45:30.532Z,22.01
2023-08-16T18:47:57.116Z,21.94
2023-08-16T18:50:23.714Z,21.84
2023-08-16T18:52:50.306Z,21.77
2023-08-16T18:55:16.940Z,21.72
2023-08-16T18:57:43.586Z,21.66
2023-08-16T19:00:11.521Z,21.62
2023-08-16T19:02:38.259Z,21.55
2023-08-16T19:05:05.188Z,21.50
2023-08-16T19:07:31.714Z,21.43
2023-08-16T19:09:58.253Z,21.38
2023-08-16T19:12:25.483Z,21.34
2023-08-16T19:14:53.054Z,21.30
2023-08-16T19:17:19.736Z,21.26
2023-08-16T19:19:47.165Z,21.23
2023-08-16T19:22:13.895Z,21.19
2023-08-16T19:24:40.549Z,21.17
2023-08-16T19:27:07.239Z,21.13
2023-08-16T19:29:33.968Z,21.10
2023-08-16T19:32:00.892Z,21.02
2023-08-16T19:34:27.455Z,20.97
2023-08-16T19:36:54.056Z,20.93
2023-08-16T19:39:20.579Z,20.88
2023-08-16T19:41:47.119Z,20.82
2023-08-16T19:44:13.722Z,20.77
2023-08-16T19:46:40.647Z,20.75
2023-08-16T19:49:09.314Z,20.74
2023-08-16T19:51:35.840Z,20.71
2023-08-16T19:54:02.396Z,20.66
2023-08-16T19:56:28.986Z,20.61
2023-08-16T19:58:57.626Z,20.57
2023-08-16T20:01:24.574Z,20.50
2023-08-16T20:03:51.255Z,20.47
2023-08-16T20:06:17.887Z,20.40
2023-08-16T20:08:44.388Z,20.34
2023-08-16T20:11:11.169Z,20.26
2023-08-16T20:13:37.714Z,20.24
2023-08-16T20:16:04.630Z,20.22
2023-08-16T20:18:31.303Z,20.19
2023-08-16T20:20:57.882Z,20.15
2023-08-16T20:23:24.428Z,20.10
2023-08-16T20:25:50.995Z,20.04
2023-08-16T20:32:23.867Z,20.02
2023-08-16T20:49:35.989Z,19.75
2023-08-16T20:52:27.574Z,19.71
2023-08-16T20:54:59.370Z,19.69
2023-08-16T20:57:27.222Z,19.66
2023-08-16T20:59:54.013Z,19.69
2023-08-16T21:02:20.683Z,19.68
2023-08-16T21:04:58.473Z,19.61
2023-08-16T21:07:30.415Z,19.57
2023-08-16T21:09:56.959Z,19.53
2023-08-16T21:12:23.537Z,19.49
2023-08-16T21:14:51.357Z,19.45
2023-08-16T21:17:21.941Z,19.48
2023-08-16T21:19:48.480Z,19.44
2023-08-16T21:22:15.022Z,19.42
2023-08-16T21:24:41.600Z,19.40
2023-08-16T21:27:08.214Z,19.32
2023-08-16T21:29:34.893Z,19.25
2023-08-16T21:32:01.549Z,19.21
2023-08-16T21:34:28.144Z,19.17
2023-08-16T21:39:39.341Z,19.13
2023-08-16T21:42:05.918Z,19.09
2023-08-16T21:44:32.516Z,19.07
2023-08-16T21:46:59.030Z,19.03
2023-08-16T21:49:25.898Z,18.96
2023-08-16T21:51:52.444Z,18.93
2023-08-16T21:54:19.002Z,18.94
2023-08-16T21:59:29.406Z,18.97
2023-08-16T22:01:55.977Z,19.01
2023-08-16T22:04:22.582Z,19.03
2023-08-16T22:06:49.144Z,19.05
2023-08-16T22:09:16.345Z,19.01
2023-08-16T22:11:43.045Z,18.93
2023-08-16T22:14:11.577Z,18.90
2023-08-16T22:16:38.167Z,18.83
2023-08-16T22:19:04.985Z,18.77
2023-08-16T22:21:31.606Z,18.72
2023-08-16T22:23:58.635Z,18.69
2023-08-16T22:26:26.084Z,18.67
2023-08-16T22:28:56.828Z,18.64
2023-08-16T22:31:24.564Z,18.63
2023-08-16T22:33:51.249Z,18.67
2023-08-16T22:36:17.861Z,18.64
2023-08-16T22:41:29.071Z,18.52
2023-08-16T22:43:55.893Z,18.52
2023-08-16T22:46:22.517Z,18.51
2023-08-16T22:48:49.136Z,18.45
2023-08-16T22:51:15.701Z,18.38
2023-08-16T22:53:42.216Z,18.33
2023-08-16T22:56:08.785Z,18.28
2023-08-16T22:58:35.438Z,18.24
2023-08-16T23:01:02.028Z,18.23
2023-08-16T23:03:28.602Z,18.20
2023-08-16T23:05:55.250Z,18.18
2023-08-16T23:08:22.056Z,18.18
2023-08-16T23:10:48.581Z,18.17
2023-08-16T23:13:15.175Z,18.11
2023-08-16T23:15:41.792Z,18.11
2023-08-16T23:18:08.382Z,18.10
2023-08-16T23:20:35.998Z,18.07
2023-08-16T23:23:02.612Z,18.02
2023-08-16T23:25:29.173Z,18.00
2023-08-16T23:27:55.729Z,18.01
2023-08-16T23:30:22.285Z,17.95
2023-08-16T23:32:48.988Z,17.93
2023-08-16T23:35:17.242Z,17.91
2023-08-16T23:37:44.075Z,17.88
2023-08-16T23:40:12.479Z,17.87
2023-08-16T23:42:39.142Z,17.85
2023-08-16T23:45:06.147Z,17.82
2023-08-16T23:47:32.739Z,17.80
2023-08-16T23:49:59.437Z,17.82
2023-08-16T23:52:26.087Z,17.82
2023-08-16T23:54:52.839Z,17.78
2023-08-16T23:57:20.022Z,17.76
2023-08-16T23:59:46.775Z,17.73
